createdAt,value
2023-01-25T00:02:01.994Z,5.25
2023-01-25T00:04:29.272Z,5.45
2023-01-25T00:06:56.732Z,4.03
2023-01-25T00:09:24.408Z,4.95
2023-01-25T00:11:52.428Z,6.57
2023-01-25T00:14:20.572Z,4.88
2023-01-25T00:16:47.770Z,6.93
2023-01-25T00:19:14.956Z,4.75
2023-01-25T00:21:42.151Z,5.93
2023-01-25T00:24:11.691Z,5.82
2023-01-25T00:26:40.159Z,5.00
2023-01-25T00:29:07.335Z,5.07
2023-01-25T00:31:34.689Z,6.82
2023-01-25T00:34:06.608Z,5.95
2023-01-25T00:36:39.838Z,5.53
2023-01-25T00:39:07.916Z,5.00
2023-01-25T00:41:35.209Z,4.78
2023-01-25T00:44:02.660Z,5.63
2023-01-25T00:46:29.833Z,4.95
2023-01-25T00:48:57.617Z,4.90
2023-01-25T00:51:25.018Z,4.57
2023-01-25T00:53:52.326Z,4.85
2023-01-25T00:56:19.668Z,4.63
2023-01-25T00:58:46.797Z,4.78
2023-01-25T01:01:14.255Z,4.55
2023-01-25T01:03:41.363Z,5.43
2023-01-25T01:06:10.405Z,4.53
2023-01-25T01:11:06.310Z,4.90
2023-01-25T01:13:33.809Z,5.72
2023-01-25T01:16:05.131Z,4.88
2023-01-25T01:18:35.927Z,4.75
2023-01-25T01:21:03.079Z,5.07
2023-01-25T01:23:30.304Z,4.85
2023-01-25T01:26:00.323Z,5.22
2023-01-25T01:28:29.628Z,3.67
2023-01-25T01:31:07.376Z,5.40
2023-01-25T01:33:36.136Z,4.68
2023-01-25T01:36:09.684Z,4.93
2023-01-25T01:38:37.094Z,4.88
2023-01-25T01:41:04.347Z,3.67
2023-01-25T01:43:31.874Z,4.65
2023-01-25T01:46:00.559Z,4.85
2023-01-25T01:48:35.469Z,4.63
2023-01-25T01:51:05.121Z,4.00
2023-01-25T01:53:36.403Z,5.20
2023-01-25T01:56:05.398Z,4.38
2023-01-25T02:00:59.891Z,6.07
2023-01-25T02:03:27.352Z,4.25
2023-01-25T02:06:12.374Z,4.93
2023-01-25T02:08:40.884Z,4.57
2023-01-25T02:11:08.447Z,6.40
2023-01-25T02:13:36.627Z,4.78
2023-01-25T02:16:04.307Z,4.43
2023-01-25T02:18:32.019Z,5.03
2023-01-25T02:21:00.133Z,4.80
2023-01-25T02:23:33.476Z,4.30
2023-01-25T02:26:05.987Z,4.78
2023-01-25T02:28:39.302Z,5.90
2023-01-25T02:31:06.635Z,4.97
2023-01-25T02:33:33.947Z,4.90
2023-01-25T02:36:21.643Z,5.03
2023-01-25T02:38:52.529Z,5.22
2023-01-25T02:41:28.374Z,6.05
2023-01-25T02:43:55.551Z,4.55
2023-01-25T02:46:28.027Z,4.70
2023-01-25T02:48:55.991Z,4.43
2023-01-25T02:51:24.073Z,5.25
2023-01-25T02:53:51.589Z,4.97
2023-01-25T02:56:18.859Z,6.93
2023-01-25T02:58:46.508Z,4.68
2023-01-25T03:01:14.208Z,5.05
2023-01-25T03:03:41.701Z,4.88
2023-01-25T03:06:08.872Z,5.03
2023-01-25T03:08:36.231Z,4.85
2023-01-25T03:11:04.635Z,5.13
2023-01-25T03:13:32.092Z,5.35
2023-01-25T03:16:00.631Z,5.13
2023-01-25T03:18:27.783Z,5.95
2023-01-25T03:20:54.904Z,5.95
2023-01-25T03:23:22.052Z,4.30
2023-01-25T03:25:49.188Z,4.78
2023-01-25T03:28:16.383Z,4.55
2023-01-25T03:30:43.602Z,4.72
2023-01-25T03:33:10.785Z,5.13
2023-01-25T03:35:37.939Z,6.88
2023-01-25T03:38:05.081Z,5.70
2023-01-25T03:40:32.257Z,5.22
2023-01-25T03:42:59.453Z,5.05
2023-01-25T03:45:26.607Z,5.40
2023-01-25T03:47:53.749Z,4.60
2023-01-25T03:50:20.827Z,4.70
2023-01-25T03:52:50.669Z,5.07
2023-01-25T03:55:17.915Z,4.90
2023-01-25T03:57:45.075Z,5.55
2023-01-25T04:00:12.919Z,5.05
2023-01-25T04:02:40.158Z,5.35
2023-01-25T04:05:07.879Z,5.30
2023-01-25T04:07:35.174Z,5.78
2023-01-25T04:10:02.306Z,5.68
2023-01-25T04:12:29.504Z,5.70
2023-01-25T04:14:56.636Z,6.00
2023-01-25T04:17:23.793Z,5.45
2023-01-25T04:19:50.917Z,8.10
2023-01-25T04:22:18.068Z,5.80
2023-01-25T04:24:45.185Z,6.25
2023-01-25T04:27:12.286Z,5.40
2023-01-25T04:29:41.471Z,7.18
2023-01-25T04:32:09.332Z,5.72
2023-01-25T04:34:36.610Z,5.45
2023-01-25T04:37:03.716Z,5.50
2023-01-25T04:39:30.844Z,6.38
2023-01-25T04:41:57.978Z,6.57
2023-01-25T04:44:25.183Z,6.70
2023-01-25T04:46:52.369Z,6.03
2023-01-25T04:49:19.503Z,7.03
2023-01-25T04:51:46.614Z,10.15
2023-01-25T04:54:13.723Z,6.22
2023-01-25T04:56:40.817Z,6.28
2023-01-25T04:59:07.947Z,5.97
2023-01-25T05:01:35.153Z,5.88
2023-01-25T05:04:02.475Z,6.85
2023-01-25T05:06:29.569Z,9.32
2023-01-25T05:08:56.646Z,6.93
2023-01-25T05:11:23.736Z,8.07
2023-01-25T05:13:52.017Z,6.68
2023-01-25T05:16:19.435Z,8.15
2023-01-25T05:18:49.330Z,6.90
2023-01-25T05:21:35.463Z,8.55
2023-01-25T05:24:03.873Z,8.20
2023-01-25T05:26:49.761Z,8.15
2023-01-25T05:29:16.911Z,7.50
2023-01-25T05:31:44.115Z,14.40
2023-01-25T05:34:11.359Z,10.93
2023-01-25T05:36:38.540Z,7.18
2023-01-25T05:39:06.669Z,9.02
2023-01-25T05:41:33.808Z,7.88
2023-01-25T05:44:01.058Z,7.53
2023-01-25T05:46:28.693Z,10.10
2023-01-25T05:48:55.911Z,7.70
2023-01-25T05:51:23.160Z,8.90
2023-01-25T05:53:50.311Z,10.10
2023-01-25T05:56:17.483Z,7.82
2023-01-25T05:58:44.604Z,6.90
2023-01-25T06:01:11.947Z,8.52
2023-01-25T06:03:39.182Z,9.40
2023-01-25T06:06:06.596Z,8.73
2023-01-25T06:08:33.735Z,8.98
2023-01-25T06:11:06.710Z,6.80
2023-01-25T06:13:33.862Z,8.55
2023-01-25T06:16:01.105Z,8.32
2023-01-25T06:18:31.310Z,8.90
2023-01-25T06:20:59.219Z,9.90
2023-01-25T06:23:26.608Z,6.50
2023-01-25T06:25:55.232Z,7.38
2023-01-25T06:28:22.508Z,14.63
2023-01-25T06:30:49.682Z,7.22
2023-01-25T06:33:16.880Z,7.63
2023-01-25T06:35:45.275Z,7.78
2023-01-25T06:38:12.461Z,7.35
2023-01-25T06:40:39.657Z,7.78
2023-01-25T06:43:10.311Z,7.90
2023-01-25T06:45:37.621Z,9.05
2023-01-25T06:48:04.935Z,6.63
2023-01-25T06:50:32.103Z,7.10
2023-01-25T06:52:59.687Z,7.57
2023-01-25T06:55:26.823Z,7.57
2023-01-25T06:57:53.904Z,6.45
2023-01-25T07:00:21.326Z,7.70
2023-01-25T07:02:48.609Z,8.23
2023-01-25T07:05:15.750Z,7.38
2023-01-25T07:07:46.499Z,6.90
2023-01-25T07:10:13.792Z,6.55
2023-01-25T07:12:40.934Z,8.10
2023-01-25T07:15:08.876Z,7.15
2023-01-25T07:17:36.337Z,8.13
2023-01-25T07:20:03.628Z,7.40
2023-01-25T07:22:30.894Z,7.28
2023-01-25T07:24:59.012Z,8.10
2023-01-25T07:27:26.268Z,10.32
2023-01-25T07:29:53.368Z,6.88
2023-01-25T07:32:20.754Z,6.75
2023-01-25T07:34:48.198Z,7.68
2023-01-25T07:37:15.333Z,7.10
2023-01-25T07:39:48.375Z,6.85
2023-01-25T07:42:15.667Z,7.13
2023-01-25T07:44:42.750Z,8.00
2023-01-25T07:47:09.874Z,6.72
2023-01-25T07:49:36.977Z,7.53
2023-01-25T07:52:04.684Z,7.85
2023-01-25T07:54:32.216Z,7.78
2023-01-25T07:56:59.406Z,8.52
2023-01-25T07:59:26.714Z,7.45
2023-01-25T08:01:54.032Z,8.55
2023-01-25T08:04:21.226Z,7.82
2023-01-25T08:06:48.605Z,7.30
2023-01-25T08:09:21.299Z,6.90
2023-01-25T08:11:49.510Z,6.75
2023-01-25T08:14:16.938Z,7.00
2023-01-25T08:16:44.616Z,7.80
2023-01-25T08:19:12.162Z,7.32
2023-01-25T08:21:39.482Z,7.13
2023-01-25T08:24:07.602Z,6.93
2023-01-25T08:26:35.628Z,6.85
2023-01-25T08:29:02.756Z,7.25
2023-01-25T08:31:31.237Z,7.28
2023-01-25T08:33:58.607Z,7.32
2023-01-25T08:36:27.849Z,6.97
2023-01-25T08:38:56.678Z,7.88
2023-01-25T08:41:24.358Z,9.15
2023-01-25T08:43:52.651Z,6.25
2023-01-25T08:46:20.175Z,6.95
2023-01-25T08:48:47.607Z,7.65
2023-01-25T08:51:15.926Z,7.82
2023-01-25T08:53:43.297Z,7.20
2023-01-25T08:56:11.872Z,8.88
2023-01-25T08:58:40.175Z,8.20
2023-01-25T09:01:08.818Z,8.32
2023-01-25T09:03:36.743Z,6.28
2023-01-25T09:06:04.060Z,6.85
2023-01-25T09:08:31.175Z,7.65
2023-01-25T09:11:02.481Z,6.70
2023-01-25T09:13:31.012Z,7.20
2023-01-25T09:16:05.814Z,8.43
2023-01-25T09:18:33.858Z,6.60
2023-01-25T09:21:06.003Z,7.18
2023-01-25T09:23:33.295Z,6.75
2023-01-25T09:26:07.461Z,6.85
2023-01-25T09:28:34.796Z,8.35
2023-01-25T09:31:20.528Z,7.75
2023-01-25T09:33:49.008Z,10.35
2023-01-25T09:36:16.391Z,6.72
2023-01-25T09:38:43.683Z,6.65
2023-01-25T09:41:13.736Z,6.32
2023-01-25T09:43:51.233Z,8.70
2023-01-25T09:46:23.382Z,7.18
2023-01-25T09:49:07.282Z,7.50
2023-01-25T09:51:38.357Z,7.45
2023-01-25T09:54:06.615Z,6.57
2023-01-25T09:56:38.215Z,9.70
2023-01-25T09:59:09.544Z,6.40
2023-01-25T10:01:47.635Z,6.97
2023-01-25T10:04:19.487Z,8.07
2023-01-25T10:06:59.752Z,8.30
2023-01-25T10:11:55.036Z,8.27
2023-01-25T10:14:22.220Z,6.32
2023-01-25T10:16:52.637Z,8.25
2023-01-25T10:19:23.875Z,6.18
2023-01-25T10:21:59.789Z,6.95
2023-01-25T10:24:26.873Z,6.78
2023-01-25T10:26:57.205Z,6.53
2023-01-25T10:29:28.182Z,7.82
2023-01-25T10:32:09.589Z,9.73
2023-01-25T10:34:55.372Z,7.28
2023-01-25T10:37:25.863Z,7.25
2023-01-25T10:40:08.028Z,7.00
2023-01-25T10:42:39.135Z,7.22
2023-01-25T10:45:14.616Z,6.15
2023-01-25T10:48:03.447Z,7.22
2023-01-25T10:50:43.054Z,7.13
2023-01-25T10:53:26.886Z,6.35
2023-01-25T10:56:01.698Z,6.88
2023-01-25T10:58:36.761Z,7.38
2023-01-25T11:01:07.136Z,8.15
2023-01-25T11:03:35.756Z,6.43
2023-01-25T11:06:02.974Z,5.80
2023-01-25T11:08:43.365Z,7.30
2023-01-25T11:11:15.903Z,7.60
2023-01-25T11:13:43.167Z,6.07
2023-01-25T11:16:13.159Z,7.20
2023-01-25T11:18:49.679Z,7.40
2023-01-25T11:21:23.268Z,6.10
2023-01-25T11:24:04.676Z,5.63
2023-01-25T11:26:33.194Z,5.38
2023-01-25T11:29:17.373Z,7.90
2023-01-25T11:31:48.077Z,5.88
2023-01-25T11:34:20.367Z,6.60
2023-01-25T11:36:56.428Z,7.68
2023-01-25T11:39:46.967Z,7.03
2023-01-25T11:42:32.310Z,6.07
2023-01-25T11:45:08.759Z,7.25
2023-01-25T11:47:41.567Z,5.82
2023-01-25T11:50:09.233Z,7.07
2023-01-25T11:52:48.225Z,6.03
2023-01-25T11:55:18.371Z,6.95
2023-01-25T11:57:49.085Z,6.70
2023-01-25T12:00:16.194Z,7.28
2023-01-25T12:03:21.582Z,5.57
2023-01-25T12:05:59.014Z,6.70
2023-01-25T12:08:43.703Z,6.82
2023-01-25T12:11:29.535Z,6.97
2023-01-25T12:14:19.796Z,7.05
2023-01-25T12:17:02.853Z,7.15
2023-01-25T12:19:38.921Z,7.35
2023-01-25T12:22:11.763Z,7.60
2023-01-25T12:25:03.195Z,6.65
2023-01-25T12:27:36.132Z,7.18
2023-01-25T12:30:11.722Z,6.20
2023-01-25T12:32:42.054Z,7.90
2023-01-25T12:35:27.667Z,8.40
2023-01-25T12:37:57.936Z,7.15
2023-01-25T12:40:45.295Z,6.28
2023-01-25T12:43:16.763Z,7.38
2023-01-25T12:45:46.050Z,6.72
2023-01-25T12:48:17.738Z,7.07
2023-01-25T12:50:47.925Z,7.60
2023-01-25T12:53:18.170Z,7.63
2023-01-25T12:55:45.563Z,7.20
2023-01-25T12:58:37.886Z,7.35
2023-01-25T13:01:17.777Z,7.00
2023-01-25T13:03:57.168Z,7.70
2023-01-25T13:06:33.742Z,10.27
2023-01-25T13:09:21.370Z,7.65
2023-01-25T13:11:49.045Z,8.23
2023-01-25T13:14:16.175Z,7.15
2023-01-25T13:17:01.427Z,8.52
2023-01-25T13:19:32.029Z,7.88
2023-01-25T13:22:00.142Z,7.57
2023-01-25T13:24:31.189Z,8.07
2023-01-25T13:27:04.694Z,9.45
2023-01-25T13:29:45.905Z,10.23
2023-01-25T13:32:36.245Z,9.75
2023-01-25T13:35:03.472Z,9.73
2023-01-25T13:37:31.630Z,10.77
2023-01-25T13:40:06.577Z,10.07
2023-01-25T13:45:20.838Z,10.32
2023-01-25T13:48:06.928Z,11.10
2023-01-25T13:50:36.308Z,9.57
2023-01-25T13:53:18.313Z,10.65
2023-01-25T13:55:48.716Z,11.73
2023-01-25T13:58:22.044Z,11.57
2023-01-25T14:00:54.851Z,11.90
2023-01-25T14:03:41.425Z,11.52
2023-01-25T14:06:15.255Z,12.48
2023-01-25T14:08:46.148Z,14.13
2023-01-25T14:11:23.329Z,12.77
2023-01-25T14:13:57.348Z,12.00
2023-01-25T14:16:24.649Z,16.10
2023-01-25T14:18:51.786Z,13.32
2023-01-25T14:21:22.757Z,14.73
2023-01-25T14:23:52.208Z,14.23
2023-01-25T14:26:26.807Z,15.07
2023-01-25T14:29:02.864Z,15.02
2023-01-25T14:31:40.787Z,17.65
2023-01-25T14:34:16.279Z,17.50
2023-01-25T14:36:43.687Z,19.40
2023-01-25T14:39:28.980Z,19.63
2023-01-25T14:42:01.267Z,20.35
2023-01-25T14:44:29.412Z,21.67
2023-01-25T14:47:15.315Z,21.90
2023-01-25T14:49:42.445Z,23.17
2023-01-25T14:52:12.708Z,20.20
2023-01-25T14:54:46.041Z,25.25
2023-01-25T14:57:25.229Z,23.60
2023-01-25T14:59:53.894Z,24.30
2023-01-25T15:02:27.405Z,26.58
2023-01-25T15:05:04.860Z,23.88
2023-01-25T15:07:41.236Z,26.27
2023-01-25T15:10:20.448Z,23.35
2023-01-25T15:13:04.219Z,24.92
2023-01-25T15:15:51.166Z,23.83
2023-01-25T15:18:36.855Z,25.85
2023-01-25T15:21:04.300Z,25.33
2023-01-25T15:23:31.508Z,24.80
2023-01-25T15:25:59.896Z,23.60
2023-01-25T15:28:36.282Z,25.67
2023-01-25T15:31:05.084Z,25.95
2023-01-25T15:33:33.439Z,23.02
2023-01-25T15:36:00.564Z,25.30
2023-01-25T15:38:27.791Z,29.10
2023-01-25T15:41:01.398Z,23.70
2023-01-25T15:43:30.980Z,22.58
2023-01-25T15:45:59.021Z,22.15
2023-01-25T15:48:37.858Z,22.38
2023-01-25T15:51:05.402Z,23.08
2023-01-25T15:53:32.840Z,21.67
2023-01-25T15:56:04.133Z,22.55
2023-01-25T15:58:36.080Z,21.38
2023-01-25T16:01:03.886Z,21.13
2023-01-25T16:03:31.262Z,23.08
2023-01-25T16:05:59.874Z,17.98
2023-01-25T16:08:27.331Z,19.52
2023-01-25T16:10:54.560Z,20.90
2023-01-25T16:13:24.884Z,16.38
2023-01-25T16:15:53.049Z,18.75
2023-01-25T16:18:20.478Z,21.10
2023-01-25T16:20:47.936Z,20.48
2023-01-25T16:23:15.039Z,17.63
2023-01-25T16:25:43.172Z,18.23
2023-01-25T16:28:14.940Z,17.70
2023-01-25T16:30:42.135Z,16.13
2023-01-25T16:33:09.282Z,17.13
2023-01-25T16:35:36.491Z,16.83
2023-01-25T16:38:03.646Z,15.90
2023-01-25T16:40:34.793Z,15.43
2023-01-25T16:43:01.940Z,14.60
2023-01-25T16:45:29.215Z,16.33
2023-01-25T16:47:56.361Z,16.00
2023-01-25T16:50:23.998Z,14.18
2023-01-25T16:52:51.693Z,15.57
2023-01-25T16:55:19.936Z,15.30
2023-01-25T16:57:50.300Z,15.70
2023-01-25T17:00:17.732Z,14.80
2023-01-25T17:02:58.221Z,13.00
2023-01-25T17:05:29.190Z,13.80
2023-01-25T17:07:56.379Z,14.63
2023-01-25T17:10:23.889Z,11.55
2023-01-25T17:12:51.957Z,11.20
2023-01-25T17:15:20.495Z,14.40
2023-01-25T17:17:47.867Z,12.88
2023-01-25T17:20:15.000Z,12.23
2023-01-25T17:22:44.378Z,12.70
2023-01-25T17:25:11.521Z,11.90
2023-01-25T17:27:38.635Z,13.63
2023-01-25T17:30:06.184Z,12.20
2023-01-25T17:32:33.468Z,12.23
2023-01-25T17:35:01.403Z,12.63
2023-01-25T17:37:28.562Z,12.45
2023-01-25T17:39:55.878Z,12.55
2023-01-25T17:42:23.072Z,13.68
2023-01-25T17:44:50.352Z,11.75
2023-01-25T17:47:17.544Z,12.02
2023-01-25T17:49:44.884Z,12.82
2023-01-25T17:52:12.742Z,12.07
2023-01-25T17:54:40.274Z,9.98
2023-01-25T17:57:07.457Z,11.80
2023-01-25T17:59:34.656Z,11.65
2023-01-25T18:02:01.966Z,10.43
2023-01-25T18:04:29.289Z,12.15
2023-01-25T18:06:56.421Z,10.55
2023-01-25T18:09:25.018Z,14.15
2023-01-25T18:11:52.202Z,12.50
2023-01-25T18:14:19.922Z,12.20
2023-01-25T18:16:47.554Z,12.52
2023-01-25T18:19:15.219Z,12.23
2023-01-25T18:21:43.772Z,11.23
2023-01-25T18:24:17.133Z,13.63
2023-01-25T18:26:44.243Z,12.25
2023-01-25T18:29:11.326Z,11.52
2023-01-25T18:31:38.722Z,12.70
2023-01-25T18:34:05.976Z,12.68
2023-01-25T18:36:33.195Z,15.27
2023-01-25T18:39:01.594Z,17.02
2023-01-25T18:41:28.775Z,12.55
2023-01-25T18:43:56.856Z,14.55
2023-01-25T18:46:24.156Z,14.07
2023-01-25T18:48:51.546Z,14.05
2023-01-25T18:51:18.870Z,13.55
2023-01-25T18:53:47.621Z,13.60
2023-01-25T18:56:16.280Z,12.77
2023-01-25T18:58:43.982Z,14.50
2023-01-25T19:01:11.240Z,15.52
2023-01-25T19:03:38.531Z,13.52
2023-01-25T19:06:05.829Z,14.25
2023-01-25T19:08:35.513Z,15.68
2023-01-25T19:11:04.140Z,13.15
2023-01-25T19:13:35.697Z,14.27
2023-01-25T19:16:04.495Z,17.55
2023-01-25T19:18:36.447Z,14.75
2023-01-25T19:21:09.753Z,13.73
2023-01-25T19:23:37.969Z,14.63
2023-01-25T19:26:05.963Z,14.23
2023-01-25T19:28:34.780Z,15.38
2023-01-25T19:31:12.982Z,15.43
2023-01-25T19:33:40.298Z,12.98
2023-01-25T19:36:09.113Z,15.02
2023-01-25T19:38:42.177Z,12.23
2023-01-25T19:41:28.478Z,14.50
2023-01-25T19:43:59.730Z,15.65
2023-01-25T19:46:28.249Z,13.88
2023-01-25T19:48:55.546Z,14.07
2023-01-25T19:51:27.577Z,15.20
2023-01-25T19:53:58.652Z,14.48
2023-01-25T19:56:26.684Z,13.70
2023-01-25T19:58:58.164Z,14.18
2023-01-25T20:01:29.098Z,14.57
2023-01-25T20:04:02.138Z,15.88
2023-01-25T20:06:29.264Z,20.05
2023-01-25T20:08:57.060Z,16.85
2023-01-25T20:11:25.518Z,16.13
2023-01-25T20:13:54.011Z,13.30
2023-01-25T20:16:21.338Z,14.23
2023-01-25T20:18:49.494Z,17.42
2023-01-25T20:21:20.320Z,17.08
2023-01-25T20:23:49.120Z,14.10
2023-01-25T20:26:21.941Z,17.05
2023-01-25T20:28:53.217Z,14.98
2023-01-25T20:31:28.624Z,14.57
2023-01-25T20:33:58.214Z,18.42
2023-01-25T20:36:27.913Z,17.38
2023-01-25T20:38:55.267Z,17.30
2023-01-25T20:41:22.516Z,12.77
2023-01-25T20:43:50.725Z,15.27
2023-01-25T20:46:18.541Z,17.48
2023-01-25T20:48:45.993Z,20.85
2023-01-25T20:51:14.641Z,18.10
2023-01-25T20:53:44.219Z,17.73
2023-01-25T20:56:12.134Z,17.48
2023-01-25T20:58:39.611Z,16.95
2023-01-25T21:01:18.494Z,15.15
2023-01-25T21:03:46.021Z,17.92
2023-01-25T21:06:13.276Z,15.50
2023-01-25T21:08:40.508Z,15.68
2023-01-25T21:11:07.874Z,19.15
2023-01-25T21:13:35.219Z,16.65
2023-01-25T21:16:05.727Z,18.35
2023-01-25T21:18:34.547Z,16.10
2023-01-25T21:21:06.155Z,16.48
2023-01-25T21:23:34.284Z,16.02
2023-01-25T21:26:02.478Z,16.90
2023-01-25T21:28:32.020Z,15.82
2023-01-25T21:30:59.617Z,16.92
2023-01-25T21:33:26.835Z,18.13
2023-01-25T21:35:55.416Z,16.08
2023-01-25T21:38:22.997Z,15.13
2023-01-25T21:40:50.122Z,17.23
2023-01-25T21:43:17.999Z,18.10
2023-01-25T21:46:03.917Z,16.50
2023-01-25T21:48:49.948Z,16.38
2023-01-25T21:51:35.663Z,17.63
2023-01-25T21:54:03.015Z,16.17
2023-01-25T21:56:30.270Z,20.67
2023-01-25T21:58:57.393Z,24.70
2023-01-25T22:01:24.616Z,15.07
2023-01-25T22:03:51.886Z,15.90
2023-01-25T22:06:19.486Z,18.73
2023-01-25T22:08:47.079Z,17.20
2023-01-25T22:11:14.400Z,23.52
2023-01-25T22:13:43.200Z,19.30
2023-01-25T22:16:10.911Z,19.10
2023-01-25T22:18:39.474Z,18.25
2023-01-25T22:21:08.218Z,19.15
2023-01-25T22:23:35.981Z,17.13
2023-01-25T22:26:14.453Z,21.15
2023-01-25T22:28:50.632Z,19.55
2023-01-25T22:31:25.087Z,19.45
2023-01-25T22:33:54.027Z,17.75
2023-01-25T22:36:22.644Z,17.40
2023-01-25T22:38:50.147Z,17.77
2023-01-25T22:41:18.555Z,17.05
2023-01-25T22:43:45.653Z,22.08
2023-01-25T22:46:14.416Z,18.98
2023-01-25T22:48:41.758Z,19.75
2023-01-25T22:51:19.375Z,19.50
2023-01-25T22:53:46.912Z,21.17
2023-01-25T22:56:16.056Z,18.65
2023-01-25T22:58:44.368Z,16.35
2023-01-25T23:01:15.259Z,18.38
2023-01-25T23:03:42.680Z,20.25
2023-01-25T23:06:12.676Z,19.08
2023-01-25T23:08:39.862Z,20.75
2023-01-25T23:11:08.364Z,19.23
2023-01-25T23:13:37.106Z,20.30
2023-01-25T23:16:05.197Z,20.05
2023-01-25T23:18:50.457Z,19.50
2023-01-25T23:21:18.466Z,20.17
2023-01-25T23:23:46.149Z,18.42
2023-01-25T23:26:13.987Z,19.38
2023-01-25T23:28:41.112Z,19.95
2023-01-25T23:31:19.861Z,18.63
2023-01-25T23:33:48.264Z,20.48
2023-01-25T23:36:19.882Z,19.95
2023-01-25T23:38:47.234Z,15.68
2023-01-25T23:41:15.064Z,18.77
2023-01-25T23:43:42.629Z,17.48
2023-01-25T23:46:09.730Z,18.67
2023-01-25T23:48:37.184Z,16.20
2023-01-25T23:51:04.552Z,17.75
2023-01-25T23:53:32.154Z,18.88
2023-01-25T23:56:05.466Z,17.58
2023-01-25T23:58:34.728Z,19.83
